Rock Springs Sweetwater County Airport
KRKS : rendu visible

Aérodrome :











RETROUVEZ-NOUS SUR...

 
LOGIN :

S'inscrire | Disclaimer

   EN    FR    IT 

 









Légende :    VFR   VFR Marginal   IFR   IFR Intensif   IFR Très Intensif
Visi : 
Plafond : 
>= 8 km
>= 3000ft
5 à 8 km
1000 à 3000 ft
1500m à 5 km
500 à 1000 ft
800 à 1500m
200 à 500 ft
< 800m
< 200 ft
Symboles :   Orages  Brouillard  Fortes neiges  Fortes précipitations  Vent > 20 kt






- Altitude de l'aérodrome : 6764 ft
- Code IATA : RKS


KRKS - Rock Springs Sweetwater County

DERNIER METAR :
  • 011254Z AUTO 15006KT 10SM CLR 15/04 A3017 RMK AO2 SLP133 T01500044

METARs EXPIRÉS :
  • 011154Z AUTO 14007KT 10SM CLR 14/04 A3015 RMK AO2 SLP132 70001 T01390039 10167 20133 53005

TAF KRKS
Valide du 01 à 12h jusqu'au 02 à 12h UTC


011120Z 0112/0212 18010KT P6SM SCT120
FM011600 22018G26KT P6SM FEW110
FM011900 24023G33KT P6SM FEW120
FM020200 28010KT P6SM SKC
FM020600 23006KT P6SM FEW200
FIR KZLC / Amérique du Nord



MET'MAP, la Météo Aéronautique d'un coup d'oeil ! - Copyright ORBIFLY Décembre 2007 - Disclaimer

ORBIFLY MET'MAP TEAM :

Programmation & Développement : Alexandra Zaïnal
Sur une idée originale de : Baudouin d'Aumeries
Assistance à la programmation : Marc-Olivier Méhu
Soutien technique & logistique : Manuel Goepfert

Contact : metmap@orbifly.com




SOURCES & CREDITS :

   NOAA       Earth
Advisory